Time;durP1;ratioP1;P1;durP2;ratioP2;P2;SDS_P1;SDS_P2;PMS_P1;PMS_P2;Temp;Humidity;BMP_temperature;BMP_pressure;BME280_temperature;BME280_humidity;BME280_pressure;Samples;Min_cycle;Max_cycle;Signal;HPM_P1;HPM_P2
2021/05/09 00:01:22;;;;;;;;;2.00;2.00;;;;;22.34;20.06;99121.28;5001108;28;8851;-47
2021/05/09 00:03:47;;;;;;;;;1.00;1.00;;;;;22.40;19.93;99121.81;5004436;28;8784;-42
2021/05/09 00:06:14;;;;;;;;;2.00;2.00;;;;;21.01;22.75;99126.25;4975825;28;8826;-45
2021/05/09 00:08:40;;;;;;;;;3.00;3.00;;;;;21.96;21.24;99114.53;4982808;28;8810;-44
2021/05/09 00:11:05;;;;;;;;;2.00;2.00;;;;;22.15;20.97;99121.22;4969413;28;8798;-44
2021/05/09 00:13:30;;;;;;;;;2.00;2.00;;;;;22.17;21.56;99110.69;4982213;28;8917;-43
2021/05/09 00:15:58;;;;;;;;;1.75;1.75;;;;;22.14;22.87;99106.69;4982123;28;8822;-46
2021/05/09 00:18:23;;;;;;;;;2.00;2.00;;;;;21.98;22.59;99103.19;4973088;28;8783;-45
2021/05/09 00:20:48;;;;;;;;;2.00;2.00;;;;;21.69;22.64;99103.31;4989611;28;8822;-44
2021/05/09 00:23:14;;;;;;;;;2.00;2.00;;;;;21.48;23.10;99103.59;4990336;28;8787;-44
2021/05/09 00:25:39;;;;;;;;;2.00;2.00;;;;;21.40;22.85;99093.56;4981960;28;8775;-44
2021/05/09 00:28:05;;;;;;;;;2.50;2.50;;;;;21.34;22.73;99090.28;4980066;28;8811;-44
2021/05/09 00:30:30;;;;;;;;;2.25;2.00;;;;;21.27;22.82;99098.34;4996255;28;8820;-45
2021/05/09 00:32:55;;;;;;;;;2.75;2.75;;;;;21.23;22.72;99099.38;4993584;28;8844;-44
2021/05/09 00:35:21;;;;;;;;;2.50;2.50;;;;;21.16;22.60;99092.59;4998133;28;8899;-44
2021/05/09 00:37:46;;;;;;;;;2.00;2.00;;;;;21.12;22.49;99088.16;4997155;28;8772;-45
2021/05/09 00:40:12;;;;;;;;;2.00;2.00;;;;;21.07;22.57;99083.72;5003731;28;9549;-44
2021/05/09 00:42:37;;;;;;;;;1.60;1.60;;;;;21.01;22.76;99096.09;5003170;28;8826;-45
2021/05/09 00:45:05;;;;;;;;;2.00;2.00;;;;;20.97;22.53;99095.22;5000449;28;9537;-44
2021/05/09 00:47:31;;;;;;;;;1.40;1.40;;;;;20.92;22.58;99090.78;5001155;28;8899;-45
2021/05/09 00:49:57;;;;;;;;;2.00;2.00;;;;;20.87;22.69;99087.50;4993654;28;8889;-44
2021/05/09 00:52:25;;;;;;;;;2.00;2.00;;;;;20.85;22.55;99089.78;4975740;28;8803;-45
2021/05/09 00:54:58;;;;;;;;;2.40;2.40;;;;;20.78;22.66;99088.44;5002325;28;8844;-44
2021/05/09 00:57:24;;;;;;;;;1.80;1.80;;;;;20.76;22.65;99079.78;4983899;28;8799;-45
2021/05/09 00:59:56;;;;;;;;;2.80;2.80;;;;;20.71;22.68;99071.81;4979200;28;8890;-44
2021/05/09 01:02:22;;;;;;;;;2.00;2.00;;;;;20.68;22.70;99056.03;4988583;28;8779;-44
2021/05/09 01:04:48;;;;;;;;;2.00;2.00;;;;;20.64;22.64;99057.91;4993115;28;8794;-44
2021/05/09 01:07:14;;;;;;;;;1.20;1.20;;;;;20.61;22.55;99058.56;5009411;28;9598;-45
2021/05/09 01:09:41;;;;;;;;;2.20;2.20;;;;;20.57;22.69;99060.41;4984066;28;8790;-44
2021/05/09 01:12:10;;;;;;;;;2.00;2.00;;;;;20.53;22.68;99060.31;4988390;28;8807;-45
2021/05/09 01:14:35;;;;;;;;;2.00;2.00;;;;;20.50;22.66;99057.47;4977634;28;8807;-44
2021/05/09 01:17:00;;;;;;;;;2.00;2.00;;;;;20.47;22.64;99049.97;4997701;28;8775;-45
2021/05/09 01:19:26;;;;;;;;;2.00;2.00;;;;;20.45;22.57;99046.78;5003581;28;8823;-45
2021/05/09 01:21:51;;;;;;;;;2.75;2.75;;;;;20.41;22.61;99052.16;4990781;28;9542;-45
2021/05/09 01:24:17;;;;;;;;;2.00;2.00;;;;;20.39;22.85;99049.75;4985440;28;8997;-45
2021/05/09 01:26:42;;;;;;;;;2.00;2.00;;;;;20.36;22.72;99047.72;4998514;28;8865;-44
2021/05/09 01:29:07;;;;;;;;;2.00;2.00;;;;;20.35;22.79;99043.41;4992876;28;8791;-44
2021/05/09 01:31:33;;;;;;;;;1.25;1.25;;;;;20.31;22.68;99042.47;4991559;28;8835;-44
2021/05/09 01:33:58;;;;;;;;;1.25;1.25;;;;;20.30;22.90;99045.56;5008293;28;8810;-44
2021/05/09 01:36:23;;;;;;;;;2.00;2.00;;;;;20.28;22.81;99045.09;5009010;28;8882;-44
2021/05/09 01:38:49;;;;;;;;;2.00;2.00;;;;;20.24;22.83;99047.75;5007397;28;8881;-44
2021/05/09 01:41:14;;;;;;;;;2.00;2.00;;;;;20.23;22.83;99046.16;5000407;28;8787;-44
2021/05/09 01:43:39;;;;;;;;;2.00;2.00;;;;;20.21;22.87;99046.50;5007808;28;9534;-45
2021/05/09 01:46:05;;;;;;;;;2.00;2.00;;;;;20.19;22.93;99034.28;5010789;28;8831;-45
2021/05/09 01:48:30;;;;;;;;;2.00;2.00;;;;;20.17;22.91;99028.38;5009757;28;8814;-44
2021/05/09 01:50:56;;;;;;;;;2.00;2.00;;;;;20.16;22.95;99024.06;4996016;28;9537;-44
2021/05/09 01:53:21;;;;;;;;;2.00;2.00;;;;;20.12;22.76;99029.44;4988492;28;8795;-45
2021/05/09 01:55:46;;;;;;;;;2.00;2.00;;;;;20.10;22.89;99026.22;4984083;28;8845;-45
2021/05/09 01:58:12;;;;;;;;;2.00;2.00;;;;;20.10;22.80;99020.75;4988263;28;8820;-44
2021/05/09 02:00:38;;;;;;;;;2.00;2.00;;;;;20.08;22.92;99016.78;4999956;28;9310;-44
2021/05/09 02:03:03;;;;;;;;;1.50;1.50;;;;;20.04;22.99;99020.19;5009442;28;8788;-45
2021/05/09 02:05:29;;;;;;;;;1.00;1.00;;;;;20.03;22.84;99010.41;5007227;28;8790;-44
2021/05/09 02:07:54;;;;;;;;;2.00;2.00;;;;;20.01;23.01;99014.63;5009043;28;9560;-45
2021/05/09 02:10:19;;;;;;;;;1.75;1.75;;;;;20.00;23.06;99007.56;5001958;28;8834;-44
2021/05/09 02:12:45;;;;;;;;;2.00;2.00;;;;;19.99;22.96;99019.66;5004951;28;8823;-45
2021/05/09 02:15:11;;;;;;;;;3.00;3.00;;;;;19.97;22.94;99025.47;4985490;28;8795;-44
2021/05/09 02:17:36;;;;;;;;;2.00;2.00;;;;;19.97;22.90;99022.72;4998920;28;8792;-44
2021/05/09 02:20:05;;;;;;;;;2.00;2.00;;;;;19.93;23.04;99027.31;5003893;28;8787;-45
2021/05/09 02:22:30;;;;;;;;;2.00;2.00;;;;;19.92;23.01;99017.50;5004238;28;8800;-44
2021/05/09 02:24:56;;;;;;;;;1.25;1.25;;;;;19.91;22.96;99012.38;5005549;28;8808;-45
2021/05/09 02:27:21;;;;;;;;;1.75;1.75;;;;;19.89;23.15;99015.44;4990031;28;8791;-45
2021/05/09 02:29:46;;;;;;;;;2.00;2.00;;;;;19.88;23.23;99002.91;4998353;28;8788;-44
2021/05/09 02:32:12;;;;;;;;;2.00;2.00;;;;;19.86;22.99;99005.22;5000732;28;8783;-45
2021/05/09 02:34:37;;;;;;;;;1.00;1.00;;;;;19.85;23.14;99003.59;4986254;28;8884;-44
2021/05/09 02:37:04;;;;;;;;;2.25;2.00;;;;;19.85;23.08;98998.13;4986590;28;9570;-44
2021/05/09 02:39:29;;;;;;;;;2.00;2.00;;;;;19.83;23.00;98994.94;4984854;28;8946;-46
2021/05/09 02:41:55;;;;;;;;;1.75;1.75;;;;;19.81;22.96;98998.03;4999572;28;8934;-45
2021/05/09 02:44:20;;;;;;;;;2.00;2.00;;;;;19.81;23.07;98997.22;5005749;28;9540;-45
2021/05/09 02:46:45;;;;;;;;;2.00;2.00;;;;;19.78;23.18;99003.38;5005432;28;9621;-44
2021/05/09 02:49:11;;;;;;;;;2.00;2.00;;;;;19.78;23.25;98995.19;5007033;28;8792;-44
2021/05/09 02:51:36;;;;;;;;;2.00;2.00;;;;;19.75;23.16;98999.41;4983818;28;8809;-45
2021/05/09 02:54:02;;;;;;;;;2.00;2.00;;;;;19.74;23.05;98991.56;5000550;28;8808;-45
2021/05/09 02:56:28;;;;;;;;;1.60;1.60;;;;;19.72;23.16;98982.84;5003111;28;9632;-45
2021/05/09 02:58:53;;;;;;;;;2.00;2.00;;;;;19.72;23.21;98977.38;4993717;28;8821;-44
2021/05/09 03:01:18;;;;;;;;;2.25;2.25;;;;;19.71;23.32;98973.06;4988341;28;9000;-45
2021/05/09 03:03:44;;;;;;;;;2.00;2.00;;;;;19.70;23.23;98976.91;4983935;28;8817;-44
2021/05/09 03:06:09;;;;;;;;;2.00;2.00;;;;;19.68;23.31;98980.81;4994778;28;8772;-44
2021/05/09 03:08:34;;;;;;;;;2.00;2.00;;;;;19.67;23.19;98979.22;4999621;28;8779;-44
2021/05/09 03:11:00;;;;;;;;;2.00;2.00;;;;;19.65;23.26;98986.97;5005540;28;8780;-46
2021/05/09 03:13:26;;;;;;;;;3.40;3.40;;;;;19.65;23.41;98981.50;5004119;28;8813;-45
2021/05/09 03:15:51;;;;;;;;;2.00;2.00;;;;;19.64;23.21;98990.03;5005725;28;8812;-45
2021/05/09 03:18:17;;;;;;;;;2.50;2.50;;;;;19.64;23.17;98992.78;5005199;28;8807;-45
2021/05/09 03:20:42;;;;;;;;;2.00;2.00;;;;;19.63;23.27;98988.44;4989451;28;8822;-44
2021/05/09 03:23:07;;;;;;;;;2.00;2.00;;;;;19.61;23.31;98986.06;4986934;28;8817;-44
2021/05/09 03:25:33;;;;;;;;;1.75;1.75;;;;;19.60;23.48;98984.47;4983425;28;8882;-44
2021/05/09 03:27:59;;;;;;;;;2.00;2.00;;;;;19.60;23.40;98991.88;4987748;28;8791;-45
2021/05/09 03:30:24;;;;;;;;;2.40;2.40;;;;;19.59;23.46;99002.00;4984861;28;8783;-45
2021/05/09 03:32:50;;;;;;;;;2.00;2.00;;;;;19.58;23.35;99003.16;4984376;28;8892;-44
2021/05/09 03:35:16;;;;;;;;;2.00;2.00;;;;;19.57;23.47;99009.75;4984404;28;8799;-44
2021/05/09 03:37:41;;;;;;;;;2.60;2.00;;;;;19.55;23.30;99012.06;4985078;28;9437;-45
2021/05/09 03:40:08;;;;;;;;;3.00;3.00;;;;;19.55;23.51;99003.06;5005253;28;8843;-44
2021/05/09 03:42:34;;;;;;;;;2.00;2.00;;;;;19.54;23.60;98985.03;5005651;28;8846;-44
2021/05/09 03:45:00;;;;;;;;;2.25;2.25;;;;;19.52;23.43;98977.16;5005396;28;8927;-44
2021/05/09 03:47:26;;;;;;;;;2.20;2.20;;;;;19.52;23.58;98977.16;4994769;28;12216;-44
2021/05/09 03:49:56;;;;;;;;;2.00;2.00;;;;;19.51;23.37;98982.97;4983583;28;8803;-45
2021/05/09 03:52:21;;;;;;;;;1.80;1.80;;;;;19.49;23.58;98975.16;4984784;28;8822;-45
2021/05/09 03:54:47;;;;;;;;;2.00;2.00;;;;;19.49;23.40;98986.09;5004941;28;8855;-44
2021/05/09 03:57:13;;;;;;;;;2.80;2.80;;;;;19.48;23.45;98989.94;5000233;28;8793;-44
2021/05/09 03:59:38;;;;;;;;;2.00;2.00;;;;;19.47;23.50;98983.69;5004028;28;8774;-44
2021/05/09 04:02:04;;;;;;;;;2.50;2.25;;;;;19.46;23.59;98986.75;5004078;28;8799;-44
2021/05/09 04:04:29;;;;;;;;;1.50;1.50;;;;;19.45;23.44;98974.22;5001186;28;8811;-44
2021/05/09 04:06:54;;;;;;;;;2.25;2.25;;;;;19.45;23.59;98976.94;5003167;28;9293;-44
2021/05/09 04:09:20;;;;;;;;;2.00;2.00;;;;;19.43;23.57;98968.31;5003100;28;8797;-44
2021/05/09 04:11:45;;;;;;;;;2.00;2.00;;;;;19.42;23.60;98956.56;5000500;28;8831;-45
2021/05/09 04:14:10;;;;;;;;;1.75;1.75;;;;;19.42;23.67;98951.09;4996952;28;8783;-45
2021/05/09 04:16:35;;;;;;;;;1.75;1.75;;;;;19.41;23.58;98951.44;4986944;28;8814;-44
2021/05/09 04:19:01;;;;;;;;;1.50;1.50;;;;;19.41;23.53;98951.44;5006574;28;8812;-45
2021/05/09 04:21:26;;;;;;;;;3.00;3.00;;;;;19.40;23.39;98933.44;5000614;28;8847;-44
2021/05/09 04:23:51;;;;;;;;;3.00;2.00;;;;;19.39;23.71;98926.38;5000442;28;8796;-45
2021/05/09 04:26:17;;;;;;;;;2.00;2.00;;;;;19.38;23.68;98925.56;4997884;28;8912;-44
2021/05/09 04:28:42;;;;;;;;;2.50;2.50;;;;;19.36;23.83;98913.38;4999100;28;8755;-44
2021/05/09 04:31:07;;;;;;;;;2.00;2.00;;;;;19.36;23.59;98905.19;4983280;28;8815;-45
2021/05/09 04:33:33;;;;;;;;;2.25;2.25;;;;;19.35;23.72;98903.59;4979281;28;8826;-44
2021/05/09 04:35:58;;;;;;;;;2.50;2.50;;;;;19.34;23.54;98891.84;4990905;28;8807;-44
2021/05/09 04:38:23;;;;;;;;;2.50;2.00;;;;;19.34;23.79;98891.84;5000884;28;8899;-44
2021/05/09 04:40:49;;;;;;;;;2.00;2.00;;;;;19.33;23.83;98879.34;4997279;28;8890;-45
2021/05/09 04:43:17;;;;;;;;;2.00;2.00;;;;;19.33;23.68;98897.66;5004552;28;8808;-45
2021/05/09 04:45:50;;;;;;;;;2.00;2.00;;;;;19.31;23.82;98903.47;5000098;28;8880;-45
2021/05/09 04:48:16;;;;;;;;;2.00;2.00;;;;;19.30;23.68;98904.63;4999478;28;8823;-45
2021/05/09 04:50:41;;;;;;;;;2.00;2.00;;;;;19.30;23.80;98913.63;4996936;28;9333;-45
2021/05/09 04:53:23;;;;;;;;;2.75;2.25;;;;;19.30;23.80;98918.31;5004613;28;8789;-44
2021/05/09 04:55:49;;;;;;;;;3.00;3.00;;;;;19.29;23.71;98911.22;4998556;28;8834;-44
2021/05/09 04:58:14;;;;;;;;;2.00;2.00;;;;;19.28;23.75;98910.44;5003020;28;8824;-45
2021/05/09 05:00:39;;;;;;;;;2.00;2.00;;;;;19.28;23.83;98909.66;5001206;28;9617;-44
2021/05/09 05:03:05;;;;;;;;;2.00;2.00;;;;;19.26;23.68;98900.97;4984850;28;9610;-44
2021/05/09 05:05:30;;;;;;;;;2.00;2.00;;;;;19.26;23.89;98901.78;4979360;28;9575;-44
2021/05/09 05:07:55;;;;;;;;;2.00;2.00;;;;;19.26;23.89;98895.50;4986057;28;9623;-44
2021/05/09 05:10:21;;;;;;;;;2.00;2.00;;;;;19.25;23.70;98894.72;4999103;28;8800;-44
2021/05/09 05:12:46;;;;;;;;;2.00;2.00;;;;;19.25;24.00;98883.00;4983809;28;9764;-45
2021/05/09 05:15:12;;;;;;;;;2.00;2.00;;;;;19.24;23.88;98886.84;4981316;28;8861;-45
2021/05/09 05:17:37;;;;;;;;;1.00;1.00;;;;;19.21;23.83;98871.16;4975780;28;9630;-44
2021/05/09 05:20:03;;;;;;;;;2.50;2.50;;;;;19.21;23.99;98869.22;4979299;28;8866;-44
2021/05/09 05:22:28;;;;;;;;;1.00;1.00;;;;;19.20;24.11;98864.88;4981407;28;8783;-45
2021/05/09 05:24:53;;;;;;;;;2.50;2.50;;;;;19.19;24.07;98852.38;4999405;28;8911;-44
2021/05/09 05:27:19;;;;;;;;;2.00;2.00;;;;;19.19;23.98;98851.56;4998669;28;8785;-44
2021/05/09 05:29:44;;;;;;;;;2.25;2.25;;;;;19.18;23.86;98841.78;4995482;28;9546;-44
2021/05/09 05:32:09;;;;;;;;;2.00;2.00;;;;;19.17;24.08;98846.44;4989095;28;8790;-45
2021/05/09 05:34:34;;;;;;;;;1.00;1.00;;;;;19.15;24.16;98840.50;4979268;28;8818;-45
2021/05/09 05:37:00;;;;;;;;;2.00;2.00;;;;;19.14;24.03;98838.94;4977034;28;8832;-45
2021/05/09 05:39:25;;;;;;;;;2.00;2.00;;;;;19.15;23.94;98843.25;4997621;28;8842;-45
2021/05/09 05:41:50;;;;;;;;;2.25;2.25;;;;;19.15;23.97;98850.66;4996526;28;8818;-45
2021/05/09 05:44:16;;;;;;;;;2.00;2.00;;;;;19.14;23.92;98849.06;4998449;28;8800;-44
2021/05/09 05:46:41;;;;;;;;;2.00;2.00;;;;;19.13;23.97;98847.47;4995040;28;8791;-44
2021/05/09 05:49:06;;;;;;;;;2.00;2.00;;;;;19.13;24.19;98842.78;5004479;28;8808;-44
2021/05/09 05:51:32;;;;;;;;;2.00;2.00;;;;;19.11;24.08;98853.28;5001466;28;8795;-45
2021/05/09 05:53:58;;;;;;;;;3.00;3.00;;;;;19.12;24.09;98857.63;5003504;28;8804;-45
2021/05/09 05:56:25;;;;;;;;;2.00;2.00;;;;;19.11;24.23;98850.56;5003545;28;8804;-45
2021/05/09 05:58:51;;;;;;;;;2.20;2.00;;;;;19.10;24.10;98848.94;5002241;28;8816;-44
2021/05/09 06:01:16;;;;;;;;;2.00;2.00;;;;;19.10;24.22;98855.22;5006334;28;8965;-44
2021/05/09 06:03:42;;;;;;;;;2.00;2.00;;;;;19.09;24.04;98855.56;5001760;28;8828;-44
2021/05/09 06:06:07;;;;;;;;;2.00;2.00;;;;;19.08;24.04;98848.50;5001514;28;8796;-44
2021/05/09 06:08:32;;;;;;;;;2.50;2.50;;;;;19.07;24.28;98855.91;5003879;28;8876;-45
2021/05/09 06:10:57;;;;;;;;;3.00;3.00;;;;;19.07;24.12;98850.44;5001653;28;8895;-44
2021/05/09 06:13:23;;;;;;;;;2.00;2.00;;;;;19.06;24.08;98848.84;5003102;28;8815;-44
2021/05/09 06:15:49;;;;;;;;;1.00;1.00;;;;;19.05;24.22;98850.00;5005865;28;8946;-44
2021/05/09 06:18:15;;;;;;;;;2.00;2.00;;;;;19.04;24.26;98842.13;5002560;28;8835;-44
2021/05/09 06:20:40;;;;;;;;;2.00;2.00;;;;;19.05;24.20;98840.97;5005087;28;8823;-45
2021/05/09 06:23:06;;;;;;;;;2.00;2.00;;;;;19.04;24.44;98831.19;5001912;28;8836;-45
2021/05/09 06:25:32;;;;;;;;;2.00;2.00;;;;;19.04;24.12;98823.00;5001648;28;9879;-45
2021/05/09 06:27:58;;;;;;;;;1.80;1.80;;;;;19.02;24.38;98817.88;5003721;28;8898;-44
2021/05/09 06:30:23;;;;;;;;;1.25;1.25;;;;;19.02;24.18;98820.63;5003963;28;8793;-45
2021/05/09 06:32:49;;;;;;;;;2.00;2.00;;;;;19.01;24.30;98812.75;5004721;28;8776;-45
2021/05/09 06:35:14;;;;;;;;;2.75;2.75;;;;;19.02;24.30;98808.91;5007088;28;11594;-45
2021/05/09 06:37:40;;;;;;;;;2.00;2.00;;;;;19.01;24.32;98801.81;5001760;28;8763;-44
2021/05/09 06:40:06;;;;;;;;;2.00;2.00;;;;;19.00;24.29;98794.78;5003918;28;8859;-45
2021/05/09 06:42:32;;;;;;;;;2.20;2.20;;;;;18.99;24.20;98804.91;5002111;28;9283;-45
2021/05/09 06:45:05;;;;;;;;;2.00;2.00;;;;;18.99;24.31;98815.03;5002963;28;8807;-45
2021/05/09 06:47:30;;;;;;;;;2.40;2.40;;;;;18.99;24.28;98817.78;4994322;28;8825;-44
2021/05/09 06:49:56;;;;;;;;;3.00;2.25;;;;;18.98;24.41;98818.91;4985523;28;8843;-44
2021/05/09 06:52:21;;;;;;;;;2.00;2.00;;;;;18.98;24.34;98813.44;4984026;28;9596;-45
2021/05/09 06:54:47;;;;;;;;;2.00;2.00;;;;;18.96;24.38;98816.53;5000851;28;8840;-44
2021/05/09 06:57:12;;;;;;;;;3.00;3.00;;;;;18.96;24.25;98827.47;4986459;28;8980;-44
2021/05/09 06:59:37;;;;;;;;;2.00;2.00;;;;;18.96;24.45;98826.66;4982680;28;9564;-44
2021/05/09 07:02:03;;;;;;;;;2.00;2.00;;;;;18.95;24.37;98833.28;4980733;28;9506;-44
2021/05/09 07:04:28;;;;;;;;;2.00;2.00;;;;;18.94;24.32;98829.72;4985787;28;8806;-44
2021/05/09 07:06:53;;;;;;;;;2.75;2.75;;;;;18.95;24.45;98836.00;4981505;28;8799;-44
2021/05/09 07:09:19;;;;;;;;;2.00;2.00;;;;;18.94;24.36;98837.13;4982584;28;10149;-44
2021/05/09 07:11:44;;;;;;;;;2.00;2.00;;;;;18.94;24.43;98834.41;4977609;28;8809;-45
2021/05/09 07:14:09;;;;;;;;;3.00;3.00;;;;;18.93;24.45;98839.09;4981237;28;8774;-45
2021/05/09 07:16:36;;;;;;;;;3.00;3.00;;;;;18.92;24.31;98843.72;4984832;28;8918;-45
2021/05/09 07:19:03;;;;;;;;;2.60;2.60;;;;;18.92;24.44;98840.22;5001362;28;8821;-45
2021/05/09 07:21:41;;;;;;;;;2.00;2.00;;;;;18.92;24.52;98834.75;5000361;28;8872;-45
2021/05/09 07:24:07;;;;;;;;;2.00;2.00;;;;;18.90;24.56;98829.63;5002178;28;8821;-45
2021/05/09 07:26:33;;;;;;;;;1.00;1.00;;;;;18.91;24.46;98833.97;5003312;28;8780;-44
2021/05/09 07:28:58;;;;;;;;;2.50;2.50;;;;;18.91;24.41;98828.50;5004236;28;8927;-45
2021/05/09 07:31:23;;;;;;;;;2.00;2.00;;;;;18.89;24.71;98825.31;5002526;28;8897;-44
2021/05/09 07:33:49;;;;;;;;;2.25;2.25;;;;;18.90;24.60;98826.09;5002719;28;8911;-44
2021/05/09 07:36:14;;;;;;;;;2.00;2.00;;;;;18.89;24.40;98828.03;5000950;28;8835;-44
2021/05/09 07:38:39;;;;;;;;;2.75;2.75;;;;;18.89;24.54;98822.56;5000988;28;8792;-44
2021/05/09 07:41:05;;;;;;;;;3.00;2.00;;;;;18.88;24.67;98822.91;4999845;28;8796;-44
2021/05/09 07:43:31;;;;;;;;;2.75;2.00;;;;;18.86;24.49;98812.31;5003596;28;8784;-44
2021/05/09 07:45:57;;;;;;;;;3.00;3.00;;;;;18.88;24.56;98804.56;5006174;28;8816;-44
2021/05/09 07:48:22;;;;;;;;;2.50;2.50;;;;;18.86;24.65;98800.59;4997975;28;8792;-45
2021/05/09 07:50:49;;;;;;;;;2.00;2.00;;;;;18.86;24.41;98795.16;5000195;28;8976;-44
2021/05/09 07:53:14;;;;;;;;;2.00;2.00;;;;;18.84;24.70;98787.28;5000474;28;8878;-44
2021/05/09 07:55:41;;;;;;;;;2.00;2.00;;;;;18.84;24.53;98779.09;4998291;28;8807;-45
2021/05/09 07:58:20;;;;;;;;;2.00;2.00;;;;;18.83;24.55;98766.56;5002092;28;11582;-45
2021/05/09 08:00:46;;;;;;;;;3.40;3.00;;;;;18.84;24.73;98775.56;4999880;28;8836;-45
2021/05/09 08:03:12;;;;;;;;;2.00;2.00;;;;;18.83;24.65;98766.56;4999377;28;8800;-44
2021/05/09 08:05:38;;;;;;;;;3.00;3.00;;;;;18.83;24.58;98758.38;5001418;28;8777;-45
2021/05/09 08:08:04;;;;;;;;;2.00;2.00;;;;;18.81;24.52;98744.22;5000376;28;8772;-44
2021/05/09 08:10:35;;;;;;;;;2.00;2.00;;;;;18.82;24.70;98751.31;5000250;28;9536;-44
2021/05/09 08:13:01;;;;;;;;;2.00;2.00;;;;;18.81;24.77;98744.22;5003796;28;11544;-44
2021/05/09 08:15:26;;;;;;;;;2.75;2.75;;;;;18.81;24.66;98744.22;5001660;28;8828;-44
2021/05/09 08:17:53;;;;;;;;;2.00;2.00;;;;;18.80;24.59;98750.03;5002925;28;8812;-45
2021/05/09 08:20:19;;;;;;;;;2.00;2.00;;;;;18.79;24.88;98748.47;5000214;28;8962;-45
2021/05/09 08:22:45;;;;;;;;;3.00;2.00;;;;;18.79;24.61;98741.03;5000613;28;8869;-45
2021/05/09 08:25:13;;;;;;;;;2.00;2.00;;;;;18.80;24.70;98741.84;5001706;28;8804;-44
2021/05/09 08:27:38;;;;;;;;;2.00;2.00;;;;;18.77;24.67;98734.31;5001249;28;9513;-45
2021/05/09 08:30:05;;;;;;;;;2.00;2.00;;;;;18.77;24.61;98732.41;4999020;28;8831;-44
2021/05/09 08:32:31;;;;;;;;;2.00;2.00;;;;;18.77;24.77;98739.78;4991641;28;8811;-44
2021/05/09 08:34:58;;;;;;;;;1.00;1.00;;;;;18.77;24.81;98737.06;4981071;28;8879;-44
2021/05/09 08:37:24;;;;;;;;;2.00;2.00;;;;;18.76;24.72;98730.00;4975818;28;8892;-44
2021/05/09 08:39:49;;;;;;;;;1.60;1.60;;;;;18.77;24.76;98731.59;4980751;28;8815;-44
2021/05/09 08:42:16;;;;;;;;;3.50;3.50;;;;;18.76;24.79;98727.28;4980491;28;8823;-44
2021/05/09 08:44:44;;;;;;;;;3.00;3.00;;;;;18.75;24.91;98721.03;4976596;28;9607;-45
2021/05/09 08:47:10;;;;;;;;;2.00;2.00;;;;;18.75;24.96;98712.84;4986623;28;8784;-44
2021/05/09 08:49:41;;;;;;;;;3.00;3.00;;;;;18.73;24.59;98704.97;4999664;28;8804;-44
2021/05/09 08:52:07;;;;;;;;;1.00;1.00;;;;;18.73;24.91;98709.63;4975966;28;8794;-45
2021/05/09 08:54:33;;;;;;;;;2.00;2.00;;;;;18.72;24.82;98703.38;4978624;28;8783;-45
2021/05/09 08:56:58;;;;;;;;;2.00;2.00;;;;;18.71;24.76;98696.34;4992366;28;8792;-44
2021/05/09 08:59:23;;;;;;;;;2.00;2.00;;;;;18.71;24.88;98690.06;4997000;28;8836;-44
2021/05/09 09:01:49;;;;;;;;;2.00;2.00;;;;;18.72;25.00;98694.41;4998546;28;8828;-44
2021/05/09 09:04:14;;;;;;;;;2.00;2.00;;;;;18.70;24.86;98693.94;5002207;28;8874;-44
2021/05/09 09:06:46;;;;;;;;;2.00;2.00;;;;;18.70;24.93;98696.69;4998167;28;9587;-43
2021/05/09 09:09:23;;;;;;;;;1.00;1.00;;;;;18.69;24.93;98703.28;5002406;28;9357;-43
2021/05/09 09:11:56;;;;;;;;;2.00;2.00;;;;;18.68;24.91;98688.84;4996017;28;9559;-44
2021/05/09 09:14:25;;;;;;;;;2.00;2.00;;;;;18.68;24.96;98685.28;4996231;28;8811;-44
2021/05/09 09:17:10;;;;;;;;;2.00;2.00;;;;;18.69;25.02;98681.44;5000598;28;8866;-45
2021/05/09 09:19:56;;;;;;;;;3.00;3.00;;;;;18.67;25.15;98689.16;5000228;28;8792;-43
2021/05/09 09:22:22;;;;;;;;;3.00;2.20;;;;;18.68;24.90;98682.56;4999930;28;8827;-44
2021/05/09 09:25:05;;;;;;;;;2.25;2.25;;;;;18.67;25.14;98683.72;5005523;28;8832;-44
2021/05/09 09:27:31;;;;;;;;;2.00;1.80;;;;;18.66;25.07;98688.38;5001729;28;8797;-44
2021/05/09 09:30:04;;;;;;;;;2.00;2.00;;;;;18.65;25.07;98681.31;5000273;28;9634;-43
2021/05/09 09:32:29;;;;;;;;;2.00;2.00;;;;;18.66;24.91;98687.56;5000336;28;8788;-45
2021/05/09 09:34:55;;;;;;;;;2.20;2.20;;;;;18.66;25.02;98679.38;5004650;28;8796;-44
2021/05/09 09:37:20;;;;;;;;;3.00;3.00;;;;;18.65;25.07;98681.31;5005589;28;8823;-44
2021/05/09 09:39:50;;;;;;;;;2.00;2.00;;;;;18.66;24.93;98682.09;5004762;28;8875;-43
2021/05/09 09:42:34;;;;;;;;;3.00;3.00;;;;;18.64;25.24;98679.72;5001598;28;8812;-44
2021/05/09 09:45:20;;;;;;;;;3.00;3.00;;;;;18.63;25.11;98671.91;5004976;28;8870;-44
2021/05/09 09:48:02;;;;;;;;;2.00;2.00;;;;;18.63;25.16;98677.34;5003940;28;8816;-43
2021/05/09 09:50:50;;;;;;;;;2.00;2.00;;;;;18.63;25.15;98677.34;5006526;28;8800;-44
2021/05/09 09:53:30;;;;;;;;;3.00;3.00;;;;;18.62;25.14;98673.03;5003500;28;8800;-44
2021/05/09 09:56:01;;;;;;;;;2.00;2.00;;;;;18.62;25.07;98673.03;4999616;28;8796;-43
2021/05/09 09:58:43;;;;;;;;;1.40;1.40;;;;;18.62;25.13;98686.69;5005319;28;8830;-44
2021/05/09 10:01:10;;;;;;;;;2.00;2.00;;;;;18.61;25.25;98676.88;4996960;28;8840;-44
2021/05/09 10:03:36;;;;;;;;;2.80;2.80;;;;;18.61;25.12;98679.63;4997969;28;9524;-44
2021/05/09 10:06:01;;;;;;;;;3.00;3.00;;;;;18.61;25.09;98669.50;4990985;28;8844;-44
2021/05/09 10:08:27;;;;;;;;;3.00;3.00;;;;;18.61;25.21;98668.69;4994544;28;8797;-44
2021/05/09 10:10:53;;;;;;;;;3.00;3.00;;;;;18.60;25.00;98662.44;4997419;28;8830;-44
2021/05/09 10:13:20;;;;;;;;;2.40;2.40;;;;;18.60;25.18;98661.66;4985137;28;11521;-43
2021/05/09 10:15:46;;;;;;;;;2.00;2.00;;;;;18.59;25.02;98660.06;4983730;28;8807;-44
2021/05/09 10:18:13;;;;;;;;;2.20;2.20;;;;;18.59;25.16;98662.78;4982710;28;8799;-44
2021/05/09 10:20:40;;;;;;;;;3.00;3.00;;;;;18.59;25.18;98660.06;4984306;28;9021;-43
2021/05/09 10:23:07;;;;;;;;;2.00;2.00;;;;;18.58;25.02;98663.94;4981286;28;9644;-44
2021/05/09 10:25:50;;;;;;;;;3.00;3.00;;;;;18.59;25.33;98654.59;4982794;28;8795;-44
2021/05/09 10:28:20;;;;;;;;;2.20;2.00;;;;;18.58;25.23;98650.28;4983992;28;8883;-39
2021/05/09 10:30:58;;;;;;;;;2.00;2.00;;;;;19.13;26.26;98651.47;5003242;28;8796;-48
2021/05/09 10:33:38;;;;;;;;;3.00;3.00;;;;;20.07;25.18;98653.81;5001563;28;8792;-49
2021/05/09 10:36:05;;;;;;;;;2.00;2.00;;;;;20.63;23.49;98648.03;5002037;28;8890;-45
2021/05/09 10:38:33;;;;;;;;;2.00;2.00;;;;;20.92;22.51;98654.13;4993427;28;9002;-48
2021/05/09 10:41:10;;;;;;;;;2.00;2.00;;;;;21.15;21.60;98654.97;4980191;28;8787;-43
2021/05/09 10:43:35;;;;;;;;;2.40;2.00;;;;;21.33;21.21;98649.81;4984154;28;8815;-45
2021/05/09 10:46:00;;;;;;;;;2.75;2.75;;;;;21.47;20.89;98652.03;5005811;28;8799;-49
2021/05/09 10:50:54;;;;;;;;;1.80;1.80;;;;;21.74;20.07;98654.88;5003294;28;8917;-49
2021/05/09 10:56:04;;;;;;;;;1.80;1.80;;;;;22.17;19.58;98658.28;4985683;28;8792;-47
2021/05/09 10:58:42;;;;;;;;;2.00;2.00;;;;;22.24;19.41;98652.88;5003765;28;8946;-45
2021/05/09 11:01:07;;;;;;;;;2.00;2.00;;;;;22.18;19.84;98654.38;5004048;28;8836;-48
2021/05/09 11:03:39;;;;;;;;;2.00;2.00;;;;;20.40;23.54;98646.00;5000930;28;8815;-48
2021/05/09 11:06:13;;;;;;;;;3.00;3.00;;;;;19.92;24.97;98655.44;4988132;28;8806;-48
2021/05/09 11:08:48;;;;;;;;;2.00;2.00;;;;;19.68;25.68;98647.03;4982540;28;8810;-48
2021/05/09 11:11:21;;;;;;;;;2.00;2.00;;;;;19.61;25.64;98640.56;4981274;28;8815;-49
2021/05/09 11:14:13;;;;;;;;;2.00;2.00;;;;;19.56;25.99;98638.91;4982558;28;8767;-49
2021/05/09 11:16:43;;;;;;;;;3.00;3.00;;;;;19.48;26.25;98635.19;4977917;28;8834;-48
2021/05/09 11:19:10;;;;;;;;;3.20;3.20;;;;;19.50;26.27;98626.63;4980171;28;8962;-49
2021/05/09 11:22:02;;;;;;;;;2.60;2.40;;;;;19.48;26.19;98624.25;5002025;28;8886;-49
2021/05/09 11:24:30;;;;;;;;;4.00;3.00;;;;;19.49;26.30;98625.06;5000748;28;8823;-49
2021/05/09 11:26:57;;;;;;;;;2.00;2.00;;;;;19.46;26.46;98625.75;4986785;28;8787;-50
2021/05/09 11:29:23;;;;;;;;;2.40;2.40;;;;;19.45;26.34;98630.44;4983720;28;8821;-47
2021/05/09 11:32:05;;;;;;;;;2.00;2.00;;;;;19.47;27.80;98627.34;4984139;28;8781;-47
2021/05/09 11:34:32;;;;;;;;;2.00;2.00;;;;;20.25;24.12;98622.19;4999710;28;8901;-47
2021/05/09 11:36:58;;;;;;;;;2.00;2.00;;;;;20.69;23.26;98619.22;4983894;28;9327;-47
2021/05/09 11:39:35;;;;;;;;;2.00;2.00;;;;;20.36;24.20;98614.97;4983326;28;8886;-46
2021/05/09 11:42:17;;;;;;;;;2.20;2.20;;;;;19.63;26.02;98613.66;4995299;28;8804;-46
2021/05/09 11:44:44;;;;;;;;;2.40;2.00;;;;;20.23;24.52;98619.78;5001074;28;8787;-50
2021/05/09 11:47:15;;;;;;;;;2.00;2.00;;;;;20.90;23.88;98607.09;5000760;28;8764;-48